CPX246 Details

Departure: Benito Juárez International Airport (MMMX)
Arrival: Los Angeles International Airport (KLAX)
Route: PPE J93 ASUTA AMMOR OLAAA1


Current Weather Information
MMMX 212247Z 33004G15KT 7SM SCT020TCU SCT080 BKN200 30/M01 A3007 NOSIG RMK 8/263 HZY DSNT CB S W
KLAX 212253Z 25021G30KT 10SM FEW025 FEW060 SCT250 18/09 A2982 RMK AO2 PK WND 25030/2246 SLPNO T01830094